sensor_id;sensor_type;location;lat;lon;timestamp;temperature;humidity
17331;DHT22;8783;52.448;4.638;2023-12-07T00:00:19;16.00;99.90
17331;DHT22;8783;52.448;4.638;2023-12-07T00:02:44;16.00;99.90
17331;DHT22;8783;52.448;4.638;2023-12-07T00:05:10;15.90;99.90
17331;DHT22;8783;52.448;4.638;2023-12-07T00:07:35;15.90;99.90
17331;DHT22;8783;52.448;4.638;2023-12-07T00:10:01;15.90;99.90
17331;DHT22;8783;52.448;4.638;2023-12-07T00:12:27;16.00;99.90
17331;DHT22;8783;52.448;4.638;2023-12-07T00:14:52;16.00;99.90
17331;DHT22;8783;52.448;4.638;2023-12-07T00:17:18;16.00;99.90
17331;DHT22;8783;52.448;4.638;2023-12-07T00:19:44;15.90;99.90
17331;DHT22;8783;52.448;4.638;2023-12-07T00:22:09;16.00;99.90
17331;DHT22;8783;52.448;4.638;2023-12-07T00:24:35;15.90;99.90
17331;DHT22;8783;52.448;4.638;2023-12-07T00:27:01;16.00;99.90
17331;DHT22;8783;52.448;4.638;2023-12-07T00:29:26;15.90;99.90
17331;DHT22;8783;52.448;4.638;2023-12-07T00:31:52;16.00;99.90
17331;DHT22;8783;52.448;4.638;2023-12-07T00:34:17;15.90;99.90
17331;DHT22;8783;52.448;4.638;2023-12-07T00:36:44;15.90;99.90
17331;DHT22;8783;52.448;4.638;2023-12-07T00:39:09;15.90;99.90
17331;DHT22;8783;52.448;4.638;2023-12-07T00:41:35;15.90;99.90
17331;DHT22;8783;52.448;4.638;2023-12-07T00:44:01;15.90;99.90
17331;DHT22;8783;52.448;4.638;2023-12-07T00:46:26;15.90;99.90
17331;DHT22;8783;52.448;4.638;2023-12-07T00:48:52;15.90;99.90
17331;DHT22;8783;52.448;4.638;2023-12-07T00:51:17;15.90;99.90
17331;DHT22;8783;52.448;4.638;2023-12-07T00:53:43;15.90;99.90
17331;DHT22;8783;52.448;4.638;2023-12-07T00:56:09;15.90;99.90
17331;DHT22;8783;52.448;4.638;2023-12-07T00:58:35;15.90;99.90
17331;DHT22;8783;52.448;4.638;2023-12-07T01:01:01;15.90;99.90
17331;DHT22;8783;52.448;4.638;2023-12-07T01:03:27;15.90;99.90
17331;DHT22;8783;52.448;4.638;2023-12-07T01:05:52;15.90;99.90
17331;DHT22;8783;52.448;4.638;2023-12-07T01:08:18;15.90;99.90
17331;DHT22;8783;52.448;4.638;2023-12-07T01:10:43;15.90;99.90
17331;DHT22;8783;52.448;4.638;2023-12-07T01:13:09;15.90;99.90
17331;DHT22;8783;52.448;4.638;2023-12-07T01:15:34;15.90;99.90
17331;DHT22;8783;52.448;4.638;2023-12-07T01:18:00;15.90;99.90
17331;DHT22;8783;52.448;4.638;2023-12-07T01:20:26;15.90;99.90
17331;DHT22;8783;52.448;4.638;2023-12-07T01:22:51;15.90;99.90
17331;DHT22;8783;52.448;4.638;2023-12-07T01:25:17;15.80;99.90
17331;DHT22;8783;52.448;4.638;2023-12-07T01:27:47;15.90;99.90
17331;DHT22;8783;52.448;4.638;2023-12-07T01:30:13;15.90;99.90
17331;DHT22;8783;52.448;4.638;2023-12-07T01:32:39;15.90;99.90
17331;DHT22;8783;52.448;4.638;2023-12-07T01:35:05;15.90;99.90
17331;DHT22;8783;52.448;4.638;2023-12-07T01:37:30;15.90;99.90
17331;DHT22;8783;52.448;4.638;2023-12-07T01:39:56;15.90;99.90
17331;DHT22;8783;52.448;4.638;2023-12-07T01:42:22;15.90;99.90
17331;DHT22;8783;52.448;4.638;2023-12-07T01:44:47;15.80;99.90
17331;DHT22;8783;52.448;4.638;2023-12-07T01:47:13;15.90;99.90
17331;DHT22;8783;52.448;4.638;2023-12-07T01:49:40;15.90;99.90
17331;DHT22;8783;52.448;4.638;2023-12-07T01:52:06;15.90;99.90
17331;DHT22;8783;52.448;4.638;2023-12-07T01:54:32;15.90;99.90
17331;DHT22;8783;52.448;4.638;2023-12-07T01:56:58;15.90;99.90
17331;DHT22;8783;52.448;4.638;2023-12-07T01:59:25;15.90;99.90
17331;DHT22;8783;52.448;4.638;2023-12-07T02:01:51;15.80;99.90
17331;DHT22;8783;52.448;4.638;2023-12-07T02:04:17;15.80;99.90
17331;DHT22;8783;52.448;4.638;2023-12-07T02:06:42;15.90;99.90
17331;DHT22;8783;52.448;4.638;2023-12-07T02:09:08;15.80;99.90
17331;DHT22;8783;52.448;4.638;2023-12-07T02:11:34;15.80;99.90
17331;DHT22;8783;52.448;4.638;2023-12-07T02:14:00;15.90;99.90
17331;DHT22;8783;52.448;4.638;2023-12-07T02:16:43;15.80;99.90
17331;DHT22;8783;52.448;4.638;2023-12-07T02:22:02;15.80;99.90
17331;DHT22;8783;52.448;4.638;2023-12-07T02:24:33;15.80;99.90
17331;DHT22;8783;52.448;4.638;2023-12-07T02:26:59;15.80;99.90
17331;DHT22;8783;52.448;4.638;2023-12-07T02:29:24;15.80;99.90
17331;DHT22;8783;52.448;4.638;2023-12-07T02:31:50;15.80;99.90
17331;DHT22;8783;52.448;4.638;2023-12-07T02:34:16;15.80;99.90
17331;DHT22;8783;52.448;4.638;2023-12-07T02:36:43;15.80;99.90
17331;DHT22;8783;52.448;4.638;2023-12-07T02:39:10;15.80;99.90
17331;DHT22;8783;52.448;4.638;2023-12-07T02:41:38;15.80;99.90
17331;DHT22;8783;52.448;4.638;2023-12-07T02:44:05;15.80;99.90
17331;DHT22;8783;52.448;4.638;2023-12-07T02:46:31;15.80;99.90
17331;DHT22;8783;52.448;4.638;2023-12-07T02:48:57;15.80;99.90
17331;DHT22;8783;52.448;4.638;2023-12-07T02:51:23;15.80;99.90
17331;DHT22;8783;52.448;4.638;2023-12-07T02:53:49;15.80;99.90
17331;DHT22;8783;52.448;4.638;2023-12-07T02:56:15;15.80;99.90
17331;DHT22;8783;52.448;4.638;2023-12-07T02:58:40;15.80;99.90
17331;DHT22;8783;52.448;4.638;2023-12-07T03:01:06;15.80;99.90
17331;DHT22;8783;52.448;4.638;2023-12-07T03:03:31;15.80;99.90
17331;DHT22;8783;52.448;4.638;2023-12-07T03:05:57;15.80;99.90
17331;DHT22;8783;52.448;4.638;2023-12-07T03:08:23;15.80;99.90
17331;DHT22;8783;52.448;4.638;2023-12-07T03:10:48;15.80;99.90
17331;DHT22;8783;52.448;4.638;2023-12-07T03:13:14;15.80;99.90
17331;DHT22;8783;52.448;4.638;2023-12-07T03:15:39;15.80;99.90
17331;DHT22;8783;52.448;4.638;2023-12-07T03:18:05;15.80;99.90
17331;DHT22;8783;52.448;4.638;2023-12-07T03:20:31;15.80;99.90
17331;DHT22;8783;52.448;4.638;2023-12-07T03:22:56;15.80;99.90
17331;DHT22;8783;52.448;4.638;2023-12-07T03:25:22;15.80;99.90
17331;DHT22;8783;52.448;4.638;2023-12-07T03:27:48;15.80;99.90
17331;DHT22;8783;52.448;4.638;2023-12-07T03:30:13;15.80;99.90
17331;DHT22;8783;52.448;4.638;2023-12-07T03:32:39;15.80;99.90
17331;DHT22;8783;52.448;4.638;2023-12-07T03:35:05;15.80;99.90
17331;DHT22;8783;52.448;4.638;2023-12-07T03:37:30;15.80;99.90
17331;DHT22;8783;52.448;4.638;2023-12-07T03:39:56;15.80;99.90
17331;DHT22;8783;52.448;4.638;2023-12-07T03:42:22;15.80;99.90
17331;DHT22;8783;52.448;4.638;2023-12-07T03:44:47;15.80;99.90
17331;DHT22;8783;52.448;4.638;2023-12-07T03:47:13;15.80;99.90
17331;DHT22;8783;52.448;4.638;2023-12-07T03:49:38;15.80;99.90
17331;DHT22;8783;52.448;4.638;2023-12-07T03:52:04;15.80;99.90
17331;DHT22;8783;52.448;4.638;2023-12-07T03:54:30;15.80;99.90
17331;DHT22;8783;52.448;4.638;2023-12-07T03:56:56;15.80;99.90
17331;DHT22;8783;52.448;4.638;2023-12-07T03:59:21;15.80;99.90
17331;DHT22;8783;52.448;4.638;2023-12-07T04:01:47;15.80;99.90
17331;DHT22;8783;52.448;4.638;2023-12-07T04:04:12;15.80;99.90
17331;DHT22;8783;52.448;4.638;2023-12-07T04:06:38;15.70;99.90
17331;DHT22;8783;52.448;4.638;2023-12-07T04:09:04;15.80;99.90
17331;DHT22;8783;52.448;4.638;2023-12-07T04:11:29;15.80;99.90
17331;DHT22;8783;52.448;4.638;2023-12-07T04:13:55;15.80;99.90
17331;DHT22;8783;52.448;4.638;2023-12-07T04:16:20;15.80;99.90
17331;DHT22;8783;52.448;4.638;2023-12-07T04:18:46;15.80;99.90
17331;DHT22;8783;52.448;4.638;2023-12-07T04:21:12;15.80;99.90
17331;DHT22;8783;52.448;4.638;2023-12-07T04:23:37;15.70;99.90
17331;DHT22;8783;52.448;4.638;2023-12-07T04:26:03;15.70;99.90
17331;DHT22;8783;52.448;4.638;2023-12-07T04:28:28;15.70;99.90
17331;DHT22;8783;52.448;4.638;2023-12-07T04:30:54;15.70;99.90
17331;DHT22;8783;52.448;4.638;2023-12-07T04:33:20;15.70;99.90
17331;DHT22;8783;52.448;4.638;2023-12-07T04:35:45;15.70;99.90
17331;DHT22;8783;52.448;4.638;2023-12-07T04:38:11;15.70;99.90
17331;DHT22;8783;52.448;4.638;2023-12-07T04:40:36;15.70;99.90
17331;DHT22;8783;52.448;4.638;2023-12-07T04:43:03;15.70;99.90
17331;DHT22;8783;52.448;4.638;2023-12-07T04:45:28;15.70;99.90
17331;DHT22;8783;52.448;4.638;2023-12-07T04:47:54;15.70;99.90
17331;DHT22;8783;52.448;4.638;2023-12-07T04:50:19;15.70;99.90
17331;DHT22;8783;52.448;4.638;2023-12-07T04:52:45;15.70;99.90
17331;DHT22;8783;52.448;4.638;2023-12-07T04:55:10;15.70;99.90
17331;DHT22;8783;52.448;4.638;2023-12-07T04:57:36;15.70;99.90
17331;DHT22;8783;52.448;4.638;2023-12-07T05:00:03;15.70;99.90
17331;DHT22;8783;52.448;4.638;2023-12-07T05:02:31;15.70;99.90
17331;DHT22;8783;52.448;4.638;2023-12-07T05:04:57;15.70;99.90
17331;DHT22;8783;52.448;4.638;2023-12-07T05:07:23;15.70;99.90
17331;DHT22;8783;52.448;4.638;2023-12-07T05:09:49;15.70;99.90
17331;DHT22;8783;52.448;4.638;2023-12-07T05:12:16;15.70;99.90
17331;DHT22;8783;52.448;4.638;2023-12-07T05:14:42;15.70;99.90
17331;DHT22;8783;52.448;4.638;2023-12-07T05:17:07;15.70;99.90
17331;DHT22;8783;52.448;4.638;2023-12-07T05:19:33;15.70;99.90
17331;DHT22;8783;52.448;4.638;2023-12-07T05:21:59;15.70;99.90
17331;DHT22;8783;52.448;4.638;2023-12-07T05:24:24;15.70;99.90
17331;DHT22;8783;52.448;4.638;2023-12-07T05:26:50;15.70;99.90
17331;DHT22;8783;52.448;4.638;2023-12-07T05:29:15;15.70;99.90
17331;DHT22;8783;52.448;4.638;2023-12-07T05:31:41;15.70;99.90
17331;DHT22;8783;52.448;4.638;2023-12-07T05:34:07;15.70;99.90
17331;DHT22;8783;52.448;4.638;2023-12-07T05:36:33;15.70;99.90
17331;DHT22;8783;52.448;4.638;2023-12-07T05:38:59;15.70;99.90
17331;DHT22;8783;52.448;4.638;2023-12-07T05:41:24;15.70;99.90
17331;DHT22;8783;52.448;4.638;2023-12-07T05:43:53;15.70;99.90
17331;DHT22;8783;52.448;4.638;2023-12-07T05:46:19;15.70;99.90
17331;DHT22;8783;52.448;4.638;2023-12-07T05:48:45;15.70;99.90
17331;DHT22;8783;52.448;4.638;2023-12-07T05:51:17;15.70;99.90
17331;DHT22;8783;52.448;4.638;2023-12-07T05:53:43;15.70;99.90
17331;DHT22;8783;52.448;4.638;2023-12-07T05:56:10;15.70;99.90
17331;DHT22;8783;52.448;4.638;2023-12-07T05:58:36;15.70;99.90
17331;DHT22;8783;52.448;4.638;2023-12-07T06:01:02;15.70;99.90
17331;DHT22;8783;52.448;4.638;2023-12-07T06:03:28;15.70;99.90
17331;DHT22;8783;52.448;4.638;2023-12-07T06:05:54;15.70;99.90
17331;DHT22;8783;52.448;4.638;2023-12-07T06:08:21;15.70;99.90
17331;DHT22;8783;52.448;4.638;2023-12-07T06:10:47;15.70;99.90
17331;DHT22;8783;52.448;4.638;2023-12-07T06:13:13;15.80;99.90
17331;DHT22;8783;52.448;4.638;2023-12-07T06:15:40;15.80;99.90
17331;DHT22;8783;52.448;4.638;2023-12-07T06:18:05;15.80;99.90
17331;DHT22;8783;52.448;4.638;2023-12-07T06:20:31;15.80;99.90
17331;DHT22;8783;52.448;4.638;2023-12-07T06:22:57;15.80;99.90
17331;DHT22;8783;52.448;4.638;2023-12-07T06:25:23;15.80;99.90
17331;DHT22;8783;52.448;4.638;2023-12-07T06:27:49;15.80;99.90
17331;DHT22;8783;52.448;4.638;2023-12-07T06:30:15;15.90;99.90
17331;DHT22;8783;52.448;4.638;2023-12-07T06:32:40;15.80;99.90
17331;DHT22;8783;52.448;4.638;2023-12-07T06:35:06;15.90;99.90
17331;DHT22;8783;52.448;4.638;2023-12-07T06:37:33;15.90;99.90
17331;DHT22;8783;52.448;4.638;2023-12-07T06:39:58;15.90;99.90
17331;DHT22;8783;52.448;4.638;2023-12-07T06:42:27;15.90;99.90
17331;DHT22;8783;52.448;4.638;2023-12-07T06:44:52;16.00;99.90
17331;DHT22;8783;52.448;4.638;2023-12-07T06:47:18;15.90;99.90
17331;DHT22;8783;52.448;4.638;2023-12-07T06:49:44;16.00;99.90
17331;DHT22;8783;52.448;4.638;2023-12-07T06:52:11;16.00;99.90
17331;DHT22;8783;52.448;4.638;2023-12-07T06:54:37;15.90;99.90
17331;DHT22;8783;52.448;4.638;2023-12-07T06:57:04;16.00;99.90
17331;DHT22;8783;52.448;4.638;2023-12-07T06:59:30;16.00;99.90
17331;DHT22;8783;52.448;4.638;2023-12-07T07:01:55;16.00;99.90
17331;DHT22;8783;52.448;4.638;2023-12-07T07:04:21;16.00;99.90
17331;DHT22;8783;52.448;4.638;2023-12-07T07:06:46;16.00;99.90
17331;DHT22;8783;52.448;4.638;2023-12-07T07:09:12;16.00;99.90
17331;DHT22;8783;52.448;4.638;2023-12-07T07:11:38;16.00;99.90
17331;DHT22;8783;52.448;4.638;2023-12-07T07:14:04;16.00;99.90
17331;DHT22;8783;52.448;4.638;2023-12-07T07:16:30;16.00;99.90
17331;DHT22;8783;52.448;4.638;2023-12-07T07:18:56;16.00;99.90
17331;DHT22;8783;52.448;4.638;2023-12-07T07:21:21;16.00;99.90
17331;DHT22;8783;52.448;4.638;2023-12-07T07:23:47;16.00;99.90
17331;DHT22;8783;52.448;4.638;2023-12-07T07:26:13;16.00;99.90
17331;DHT22;8783;52.448;4.638;2023-12-07T07:28:42;16.00;99.90
17331;DHT22;8783;52.448;4.638;2023-12-07T07:31:08;16.00;99.90
17331;DHT22;8783;52.448;4.638;2023-12-07T07:33:34;16.00;99.90
17331;DHT22;8783;52.448;4.638;2023-12-07T07:35:59;16.00;99.90
17331;DHT22;8783;52.448;4.638;2023-12-07T07:38:25;16.00;99.90
17331;DHT22;8783;52.448;4.638;2023-12-07T07:40:51;16.00;99.90
17331;DHT22;8783;52.448;4.638;2023-12-07T07:43:16;16.10;99.90
17331;DHT22;8783;52.448;4.638;2023-12-07T07:45:42;16.10;99.90
17331;DHT22;8783;52.448;4.638;2023-12-07T07:48:07;16.10;99.90
17331;DHT22;8783;52.448;4.638;2023-12-07T07:50:33;16.10;99.90
17331;DHT22;8783;52.448;4.638;2023-12-07T07:53:02;16.10;99.90
17331;DHT22;8783;52.448;4.638;2023-12-07T07:55:27;16.00;99.90
17331;DHT22;8783;52.448;4.638;2023-12-07T07:57:53;16.00;99.90
17331;DHT22;8783;52.448;4.638;2023-12-07T08:00:19;16.00;99.90
17331;DHT22;8783;52.448;4.638;2023-12-07T08:02:46;16.00;99.90
17331;DHT22;8783;52.448;4.638;2023-12-07T08:05:12;16.00;99.90
17331;DHT22;8783;52.448;4.638;2023-12-07T08:07:41;16.00;99.90
17331;DHT22;8783;52.448;4.638;2023-12-07T08:10:07;16.00;99.90
17331;DHT22;8783;52.448;4.638;2023-12-07T08:12:34;15.90;99.90
17331;DHT22;8783;52.448;4.638;2023-12-07T08:15:00;16.00;99.90
17331;DHT22;8783;52.448;4.638;2023-12-07T08:17:26;15.90;99.90
17331;DHT22;8783;52.448;4.638;2023-12-07T08:19:52;15.90;99.90
17331;DHT22;8783;52.448;4.638;2023-12-07T08:22:18;15.90;99.90
17331;DHT22;8783;52.448;4.638;2023-12-07T08:24:43;15.90;99.90
17331;DHT22;8783;52.448;4.638;2023-12-07T08:27:09;15.90;99.90
17331;DHT22;8783;52.448;4.638;2023-12-07T08:29:35;15.90;99.90
17331;DHT22;8783;52.448;4.638;2023-12-07T08:32:02;15.80;99.90
17331;DHT22;8783;52.448;4.638;2023-12-07T08:34:28;15.80;99.90
17331;DHT22;8783;52.448;4.638;2023-12-07T08:36:54;15.80;99.90
17331;DHT22;8783;52.448;4.638;2023-12-07T08:39:20;15.80;99.90
17331;DHT22;8783;52.448;4.638;2023-12-07T08:41:45;15.80;99.90
17331;DHT22;8783;52.448;4.638;2023-12-07T08:44:11;15.80;99.90
17331;DHT22;8783;52.448;4.638;2023-12-07T08:46:37;15.70;99.90
17331;DHT22;8783;52.448;4.638;2023-12-07T08:49:02;15.70;99.90
17331;DHT22;8783;52.448;4.638;2023-12-07T08:51:28;15.70;99.90
17331;DHT22;8783;52.448;4.638;2023-12-07T08:53:54;15.70;99.90
17331;DHT22;8783;52.448;4.638;2023-12-07T08:56:20;15.60;99.90
17331;DHT22;8783;52.448;4.638;2023-12-07T08:58:45;15.70;99.90
17331;DHT22;8783;52.448;4.638;2023-12-07T09:01:11;15.60;99.90
17331;DHT22;8783;52.448;4.638;2023-12-07T09:03:37;15.60;99.90
17331;DHT22;8783;52.448;4.638;2023-12-07T09:06:03;15.60;99.90
17331;DHT22;8783;52.448;4.638;2023-12-07T09:08:28;15.60;99.90
17331;DHT22;8783;52.448;4.638;2023-12-07T09:10:54;15.60;99.90
17331;DHT22;8783;52.448;4.638;2023-12-07T09:13:20;15.60;99.90
17331;DHT22;8783;52.448;4.638;2023-12-07T09:15:45;15.60;99.90
17331;DHT22;8783;52.448;4.638;2023-12-07T09:18:11;15.60;99.90
17331;DHT22;8783;52.448;4.638;2023-12-07T09:20:37;15.60;99.90
17331;DHT22;8783;52.448;4.638;2023-12-07T09:23:13;15.60;99.90
17331;DHT22;8783;52.448;4.638;2023-12-07T09:25:40;15.60;99.90
17331;DHT22;8783;52.448;4.638;2023-12-07T09:28:06;15.60;99.90
17331;DHT22;8783;52.448;4.638;2023-12-07T09:30:32;15.60;99.90
17331;DHT22;8783;52.448;4.638;2023-12-07T09:32:59;15.60;99.90
17331;DHT22;8783;52.448;4.638;2023-12-07T09:35:25;15.60;99.90
17331;DHT22;8783;52.448;4.638;2023-12-07T09:37:51;15.60;99.90
17331;DHT22;8783;52.448;4.638;2023-12-07T09:40:18;15.60;99.90
17331;DHT22;8783;52.448;4.638;2023-12-07T09:42:48;15.60;99.90
17331;DHT22;8783;52.448;4.638;2023-12-07T09:45:14;15.60;99.90
17331;DHT22;8783;52.448;4.638;2023-12-07T09:47:42;15.60;99.90
17331;DHT22;8783;52.448;4.638;2023-12-07T09:50:08;15.60;99.90
17331;DHT22;8783;52.448;4.638;2023-12-07T09:52:35;15.60;99.90
17331;DHT22;8783;52.448;4.638;2023-12-07T09:55:04;15.60;99.90
17331;DHT22;8783;52.448;4.638;2023-12-07T09:57:30;15.60;99.90
17331;DHT22;8783;52.448;4.638;2023-12-07T09:59:56;15.60;99.90
17331;DHT22;8783;52.448;4.638;2023-12-07T10:02:22;15.60;99.90
17331;DHT22;8783;52.448;4.638;2023-12-07T10:04:49;15.70;99.90
17331;DHT22;8783;52.448;4.638;2023-12-07T10:07:35;15.70;99.90
17331;DHT22;8783;52.448;4.638;2023-12-07T10:10:03;15.70;99.90
17331;DHT22;8783;52.448;4.638;2023-12-07T10:12:33;15.70;99.90
17331;DHT22;8783;52.448;4.638;2023-12-07T10:15:11;15.70;99.90
17331;DHT22;8783;52.448;4.638;2023-12-07T10:17:51;15.70;99.90
17331;DHT22;8783;52.448;4.638;2023-12-07T10:20:25;15.70;99.90
17331;DHT22;8783;52.448;4.638;2023-12-07T10:25:29;15.70;99.90
17331;DHT22;8783;52.448;4.638;2023-12-07T10:27:55;15.70;99.90
17331;DHT22;8783;52.448;4.638;2023-12-07T10:30:21;15.70;99.90
17331;DHT22;8783;52.448;4.638;2023-12-07T10:32:51;15.70;99.90
17331;DHT22;8783;52.448;4.638;2023-12-07T10:35:18;15.70;99.90
17331;DHT22;8783;52.448;4.638;2023-12-07T10:37:44;15.70;99.90
17331;DHT22;8783;52.448;4.638;2023-12-07T10:40:10;15.70;99.90
17331;DHT22;8783;52.448;4.638;2023-12-07T10:42:37;15.70;99.90
17331;DHT22;8783;52.448;4.638;2023-12-07T10:45:06;15.70;99.90
17331;DHT22;8783;52.448;4.638;2023-12-07T10:47:36;15.70;99.90
17331;DHT22;8783;52.448;4.638;2023-12-07T10:50:06;15.70;99.90
17331;DHT22;8783;52.448;4.638;2023-12-07T10:52:39;15.70;99.90
17331;DHT22;8783;52.448;4.638;2023-12-07T10:55:33;15.70;99.90
17331;DHT22;8783;52.448;4.638;2023-12-07T10:58:01;15.70;99.90
17331;DHT22;8783;52.448;4.638;2023-12-07T11:00:29;15.70;99.90
17331;DHT22;8783;52.448;4.638;2023-12-07T11:02:54;15.70;99.90
17331;DHT22;8783;52.448;4.638;2023-12-07T11:05:20;15.70;99.90
17331;DHT22;8783;52.448;4.638;2023-12-07T11:07:57;15.70;99.90
17331;DHT22;8783;52.448;4.638;2023-12-07T11:10:31;15.70;99.90
17331;DHT22;8783;52.448;4.638;2023-12-07T11:13:24;15.80;99.90
17331;DHT22;8783;52.448;4.638;2023-12-07T11:15:52;15.80;99.90
17331;DHT22;8783;52.448;4.638;2023-12-07T11:18:18;15.80;99.90
17331;DHT22;8783;52.448;4.638;2023-12-07T11:20:45;15.80;99.90
17331;DHT22;8783;52.448;4.638;2023-12-07T11:23:17;15.80;99.90
17331;DHT22;8783;52.448;4.638;2023-12-07T11:25:47;15.80;99.90
17331;DHT22;8783;52.448;4.638;2023-12-07T11:28:14;15.90;99.90
17331;DHT22;8783;52.448;4.638;2023-12-07T11:30:44;15.90;99.90
17331;DHT22;8783;52.448;4.638;2023-12-07T11:33:09;15.90;99.90
17331;DHT22;8783;52.448;4.638;2023-12-07T11:36:03;15.90;99.90
17331;DHT22;8783;52.448;4.638;2023-12-07T11:38:29;15.90;99.90
17331;DHT22;8783;52.448;4.638;2023-12-07T11:40:55;15.90;99.90
17331;DHT22;8783;52.448;4.638;2023-12-07T11:43:45;15.90;99.90
17331;DHT22;8783;52.448;4.638;2023-12-07T11:46:12;15.90;99.90
17331;DHT22;8783;52.448;4.638;2023-12-07T11:48:39;16.00;99.90
17331;DHT22;8783;52.448;4.638;2023-12-07T11:51:08;16.00;99.90
17331;DHT22;8783;52.448;4.638;2023-12-07T11:53:37;16.00;99.90
17331;DHT22;8783;52.448;4.638;2023-12-07T11:56:08;16.00;99.90
17331;DHT22;8783;52.448;4.638;2023-12-07T11:58:35;16.00;99.90
17331;DHT22;8783;52.448;4.638;2023-12-07T12:01:02;16.00;99.90
17331;DHT22;8783;52.448;4.638;2023-12-07T12:03:29;16.00;99.90
17331;DHT22;8783;52.448;4.638;2023-12-07T12:05:56;16.00;99.90
17331;DHT22;8783;52.448;4.638;2023-12-07T12:08:22;16.00;99.90
17331;DHT22;8783;52.448;4.638;2023-12-07T12:10:49;16.10;99.90
17331;DHT22;8783;52.448;4.638;2023-12-07T12:13:16;16.10;99.90
17331;DHT22;8783;52.448;4.638;2023-12-07T12:15:42;16.10;99.90
17331;DHT22;8783;52.448;4.638;2023-12-07T12:18:09;16.10;99.90
17331;DHT22;8783;52.448;4.638;2023-12-07T12:20:35;16.10;99.90
17331;DHT22;8783;52.448;4.638;2023-12-07T12:23:01;16.10;99.90
17331;DHT22;8783;52.448;4.638;2023-12-07T12:25:31;16.10;99.90
17331;DHT22;8783;52.448;4.638;2023-12-07T12:28:02;16.10;99.90
17331;DHT22;8783;52.448;4.638;2023-12-07T12:30:29;16.10;99.90
17331;DHT22;8783;52.448;4.638;2023-12-07T12:32:56;16.10;99.90
17331;DHT22;8783;52.448;4.638;2023-12-07T12:35:22;16.10;99.90
17331;DHT22;8783;52.448;4.638;2023-12-07T12:37:49;16.10;99.90
17331;DHT22;8783;52.448;4.638;2023-12-07T12:40:16;16.20;99.90
17331;DHT22;8783;52.448;4.638;2023-12-07T12:42:45;16.20;99.90
17331;DHT22;8783;52.448;4.638;2023-12-07T12:45:11;16.20;99.90
17331;DHT22;8783;52.448;4.638;2023-12-07T12:47:38;16.20;99.90
17331;DHT22;8783;52.448;4.638;2023-12-07T12:50:04;16.20;99.90
17331;DHT22;8783;52.448;4.638;2023-12-07T12:52:30;16.20;99.90
17331;DHT22;8783;52.448;4.638;2023-12-07T12:54:56;16.20;99.90
17331;DHT22;8783;52.448;4.638;2023-12-07T12:57:23;16.20;99.90
17331;DHT22;8783;52.448;4.638;2023-12-07T12:59:50;16.20;99.90
17331;DHT22;8783;52.448;4.638;2023-12-07T13:02:15;16.30;99.90
17331;DHT22;8783;52.448;4.638;2023-12-07T13:04:41;16.20;99.90
17331;DHT22;8783;52.448;4.638;2023-12-07T13:07:06;16.30;99.90
17331;DHT22;8783;52.448;4.638;2023-12-07T13:09:32;16.30;99.90
17331;DHT22;8783;52.448;4.638;2023-12-07T13:11:58;16.30;99.90
17331;DHT22;8783;52.448;4.638;2023-12-07T13:14:24;16.30;99.90
17331;DHT22;8783;52.448;4.638;2023-12-07T13:16:49;16.30;99.90
17331;DHT22;8783;52.448;4.638;2023-12-07T13:19:15;16.30;99.90
17331;DHT22;8783;52.448;4.638;2023-12-07T13:21:41;16.30;99.90
17331;DHT22;8783;52.448;4.638;2023-12-07T13:24:07;16.30;99.90
17331;DHT22;8783;52.448;4.638;2023-12-07T13:26:40;16.30;99.90
17331;DHT22;8783;52.448;4.638;2023-12-07T13:29:06;16.30;99.90
17331;DHT22;8783;52.448;4.638;2023-12-07T13:31:33;16.30;99.90
17331;DHT22;8783;52.448;4.638;2023-12-07T13:34:00;16.30;99.90
17331;DHT22;8783;52.448;4.638;2023-12-07T13:36:26;16.40;99.90
17331;DHT22;8783;52.448;4.638;2023-12-07T13:38:55;16.40;99.90
17331;DHT22;8783;52.448;4.638;2023-12-07T13:41:21;16.40;99.90
17331;DHT22;8783;52.448;4.638;2023-12-07T13:43:47;16.40;99.90
17331;DHT22;8783;52.448;4.638;2023-12-07T13:46:17;16.40;99.90
17331;DHT22;8783;52.448;4.638;2023-12-07T13:48:42;16.40;99.90
17331;DHT22;8783;52.448;4.638;2023-12-07T13:51:08;16.40;99.90
17331;DHT22;8783;52.448;4.638;2023-12-07T13:53:34;16.40;99.90
17331;DHT22;8783;52.448;4.638;2023-12-07T13:56:00;16.40;99.90
17331;DHT22;8783;52.448;4.638;2023-12-07T13:58:26;16.40;99.90
17331;DHT22;8783;52.448;4.638;2023-12-07T14:00:51;16.40;99.90
17331;DHT22;8783;52.448;4.638;2023-12-07T14:03:17;16.40;99.90
17331;DHT22;8783;52.448;4.638;2023-12-07T14:05:43;16.40;99.90
17331;DHT22;8783;52.448;4.638;2023-12-07T14:08:08;16.40;99.90
17331;DHT22;8783;52.448;4.638;2023-12-07T14:10:34;16.40;99.90
17331;DHT22;8783;52.448;4.638;2023-12-07T14:13:01;16.40;99.90
17331;DHT22;8783;52.448;4.638;2023-12-07T14:15:26;16.40;99.90
17331;DHT22;8783;52.448;4.638;2023-12-07T14:17:52;16.40;99.90
17331;DHT22;8783;52.448;4.638;2023-12-07T14:20:18;16.40;99.90
17331;DHT22;8783;52.448;4.638;2023-12-07T14:22:45;16.40;99.90
17331;DHT22;8783;52.448;4.638;2023-12-07T14:25:11;16.40;99.90
17331;DHT22;8783;52.448;4.638;2023-12-07T14:27:37;16.40;99.90
17331;DHT22;8783;52.448;4.638;2023-12-07T14:30:02;16.40;99.90
17331;DHT22;8783;52.448;4.638;2023-12-07T14:32:28;16.40;99.90
17331;DHT22;8783;52.448;4.638;2023-12-07T14:34:55;16.40;99.90
17331;DHT22;8783;52.448;4.638;2023-12-07T14:37:21;16.40;99.90
17331;DHT22;8783;52.448;4.638;2023-12-07T14:39:46;16.40;99.90
17331;DHT22;8783;52.448;4.638;2023-12-07T14:42:13;16.40;99.90
17331;DHT22;8783;52.448;4.638;2023-12-07T14:44:39;16.40;99.90
17331;DHT22;8783;52.448;4.638;2023-12-07T14:47:04;16.40;99.90
17331;DHT22;8783;52.448;4.638;2023-12-07T14:49:30;16.40;99.90
17331;DHT22;8783;52.448;4.638;2023-12-07T14:51:56;16.40;99.90
17331;DHT22;8783;52.448;4.638;2023-12-07T14:54:23;16.40;99.90
17331;DHT22;8783;52.448;4.638;2023-12-07T14:56:49;16.40;99.90
17331;DHT22;8783;52.448;4.638;2023-12-07T14:59:14;16.40;99.90
17331;DHT22;8783;52.448;4.638;2023-12-07T15:01:42;16.40;99.90
17331;DHT22;8783;52.448;4.638;2023-12-07T15:04:08;16.40;99.90
17331;DHT22;8783;52.448;4.638;2023-12-07T15:06:35;16.40;99.90
17331;DHT22;8783;52.448;4.638;2023-12-07T15:09:01;16.40;99.90
17331;DHT22;8783;52.448;4.638;2023-12-07T15:11:31;16.30;99.90
17331;DHT22;8783;52.448;4.638;2023-12-07T15:13:56;16.30;99.90
17331;DHT22;8783;52.448;4.638;2023-12-07T15:16:22;16.40;99.90
17331;DHT22;8783;52.448;4.638;2023-12-07T15:18:47;16.40;99.90
17331;DHT22;8783;52.448;4.638;2023-12-07T15:21:13;16.40;99.90
17331;DHT22;8783;52.448;4.638;2023-12-07T15:23:39;16.30;99.90
17331;DHT22;8783;52.448;4.638;2023-12-07T15:26:05;16.40;99.90
17331;DHT22;8783;52.448;4.638;2023-12-07T15:28:33;16.30;99.90
17331;DHT22;8783;52.448;4.638;2023-12-07T15:30:59;16.30;99.90
17331;DHT22;8783;52.448;4.638;2023-12-07T15:33:24;16.30;99.90
17331;DHT22;8783;52.448;4.638;2023-12-07T15:35:50;16.40;99.90
17331;DHT22;8783;52.448;4.638;2023-12-07T15:38:15;16.30;99.90
17331;DHT22;8783;52.448;4.638;2023-12-07T15:40:41;16.30;99.90
17331;DHT22;8783;52.448;4.638;2023-12-07T15:43:07;16.30;99.90
17331;DHT22;8783;52.448;4.638;2023-12-07T15:45:32;16.30;99.90